DAL2541 KLAX-KSJC
Flight info
| Callsign | DAL2541 |
|---|---|
| Flight time | N/A |
| Altitude | 32000 |
| Route | SUMMR2 SCTRR TROXX SILCN6 |
| Aircraft | B739/M-SDE2E3FGHIRWXY/LB1 |
Departure
| Time | 2026-05-06 19:38 |
|---|---|
| Airport | Los Angeles International Airport (KLAX) |
Arrival
| Time | N/A |
|---|---|
| Airport | Norman Y. Mineta San Jose International Airport (KSJC) |
| Time | Latitude | Longitude | Altitude | Speed | Heading |
|---|---|---|---|---|---|
| 2026-05-06 19:05 | 33.94599 | -118.40820 | 122 ft | 0 kts | 83° |
| 2026-05-06 19:28 | 33.94599 | -118.40825 | 122 ft | 2 kts | 84° |
| 2026-05-06 19:28 | 33.94597 | -118.40843 | 122 ft | 2 kts | 84° |
| 2026-05-06 19:28 | 33.94596 | -118.40855 | 123 ft | 1 kts | 84° |
| 2026-05-06 19:28 | 33.94592 | -118.40871 | 123 ft | 2 kts | 58° |
| 2026-05-06 19:29 | 33.94582 | -118.40885 | 124 ft | 2 kts | 37° |
| 2026-05-06 19:29 | 33.94569 | -118.40893 | 124 ft | 2 kts | 14° |
| 2026-05-06 19:29 | 33.94556 | -118.40895 | 124 ft | 0 kts | 356° |
| 2026-05-06 19:29 | 33.94549 | -118.40894 | 124 ft | 0 kts | 353° |
| 2026-05-06 19:31 | 33.94556 | -118.40894 | 124 ft | 2 kts | 353° |
| 2026-05-06 19:31 | 33.94638 | -118.40906 | 124 ft | 8 kts | 355° |
| 2026-05-06 19:32 | 33.94667 | -118.40910 | 124 ft | 0 kts | 353° |
| 2026-05-06 19:33 | 33.94685 | -118.40913 | 124 ft | 4 kts | 353° |
| 2026-05-06 19:33 | 33.94727 | -118.40916 | 123 ft | 9 kts | 7° |
| 2026-05-06 19:33 | 33.94788 | -118.40896 | 123 ft | 8 kts | 18° |
| 2026-05-06 19:34 | 33.94842 | -118.40829 | 123 ft | 14 kts | 79° |
| 2026-05-06 19:34 | 33.94855 | -118.40713 | 123 ft | 14 kts | 83° |
| 2026-05-06 19:34 | 33.94871 | -118.40546 | 122 ft | 21 kts | 83° |
| 2026-05-06 19:34 | 33.94889 | -118.40372 | 121 ft | 20 kts | 83° |
| 2026-05-06 19:35 | 33.94906 | -118.40201 | 119 ft | 19 kts | 83° |
| 2026-05-06 19:35 | 33.94922 | -118.40040 | 118 ft | 19 kts | 83° |
| 2026-05-06 19:35 | 33.94949 | -118.39937 | 117 ft | 0 kts | 41° |
| 2026-05-06 19:36 | 33.94953 | -118.39934 | 117 ft | 3 kts | 37° |
| 2026-05-06 19:36 | 33.95014 | -118.39925 | 117 ft | 10 kts | 338° |
| 2026-05-06 19:36 | 33.95038 | -118.39994 | 117 ft | 8 kts | 265° |
| 2026-05-06 19:37 | 33.95037 | -118.40011 | 118 ft | 0 kts | 264° |
| 2026-05-06 19:37 | 33.95037 | -118.40012 | 118 ft | 0 kts | 264° |
| 2026-05-06 19:37 | 33.95030 | -118.40073 | 118 ft | 18 kts | 263° |
| 2026-05-06 19:37 | 33.95007 | -118.40303 | 120 ft | 64 kts | 263° |
| 2026-05-06 19:38 | 33.94888 | -118.41463 | 123 ft | 142 kts | 262° |
| 2026-05-06 19:38 | 33.94751 | -118.42819 | 235 ft | 178 kts | 262° |
| 2026-05-06 19:38 | 33.94582 | -118.44316 | 891 ft | 181 kts | 262° |
| 2026-05-06 19:38 | 33.94420 | -118.45853 | 1426 ft | 194 kts | 264° |
| 2026-05-06 19:39 | 33.94320 | -118.47504 | 1937 ft | 205 kts | 268° |
| 2026-05-06 19:39 | 33.94278 | -118.49300 | 2369 ft | 220 kts | 269° |
| 2026-05-06 19:39 | 33.94221 | -118.51202 | 2796 ft | 235 kts | 267° |
| 2026-05-06 19:39 | 33.94080 | -118.53185 | 3348 ft | 242 kts | 265° |
| 2026-05-06 19:40 | 33.93905 | -118.55235 | 3999 ft | 247 kts | 266° |
| 2026-05-06 19:40 | 33.93733 | -118.57291 | 4696 ft | 251 kts | 266° |
| 2026-05-06 19:40 | 33.93566 | -118.59424 | 5168 ft | 264 kts | 266° |
| 2026-05-06 19:40 | 33.93395 | -118.61657 | 5704 ft | 275 kts | 267° |
| 2026-05-06 19:41 | 33.93214 | -118.63965 | 6442 ft | 277 kts | 268° |
| 2026-05-06 19:41 | 33.93032 | -118.66306 | 7105 ft | 283 kts | 267° |
| 2026-05-06 19:41 | 33.92842 | -118.68648 | 7759 ft | 287 kts | 267° |
| 2026-05-06 19:41 | 33.92651 | -118.71067 | 8392 ft | 292 kts | 267° |
| 2026-05-06 19:42 | 33.92460 | -118.73536 | 9005 ft | 298 kts | 268° |
| 2026-05-06 19:42 | 33.92266 | -118.76037 | 9652 ft | 304 kts | 267° |
| 2026-05-06 19:42 | 33.92065 | -118.78607 | 10269 ft | 309 kts | 267° |
| 2026-05-06 19:42 | 33.91858 | -118.81246 | 10642 ft | 324 kts | 267° |
| 2026-05-06 19:43 | 33.91701 | -118.83980 | 10974 ft | 338 kts | 271° |
| 2026-05-06 19:43 | 33.91700 | -118.86879 | 11314 ft | 351 kts | 275° |
| 2026-05-06 19:43 | 33.91806 | -118.89884 | 11602 ft | 366 kts | 276° |
| 2026-05-06 19:43 | 33.91939 | -118.92980 | 11898 ft | 379 kts | 276° |
| 2026-05-06 19:44 | 33.92067 | -118.96181 | 12384 ft | 387 kts | 275° |
| 2026-05-06 19:44 | 33.92227 | -118.99425 | 13071 ft | 388 kts | 279° |
| 2026-05-06 19:44 | 33.92749 | -119.02590 | 13748 ft | 385 kts | 292° |
| 2026-05-06 19:44 | 33.93897 | -119.05495 | 14333 ft | 384 kts | 304° |
| 2026-05-06 19:45 | 33.95311 | -119.08222 | 14942 ft | 387 kts | 307° |
| 2026-05-06 19:45 | 33.96811 | -119.10922 | 15629 ft | 389 kts | 308° |
| 2026-05-06 19:45 | 33.98306 | -119.13617 | 16220 ft | 394 kts | 308° |
| 2026-05-06 19:45 | 33.99910 | -119.16310 | 16838 ft | 395 kts | 313° |
| 2026-05-06 19:46 | 34.01751 | -119.18776 | 17480 ft | 394 kts | 319° |